createdAt,value
2022-10-10T00:01:41.624Z,9.19
2022-10-10T00:04:08.300Z,8.99
2022-10-10T00:06:35.196Z,9.13
2022-10-10T00:09:03.511Z,9.02
2022-10-10T00:11:30.561Z,8.78
2022-10-10T00:13:57.647Z,8.82
2022-10-10T00:16:24.443Z,8.66
2022-10-10T00:18:52.227Z,8.77
2022-10-10T00:21:19.203Z,8.78
2022-10-10T00:23:45.886Z,8.94
2022-10-10T00:26:17.697Z,8.73
2022-10-10T00:28:45.972Z,8.93
2022-10-10T00:31:12.725Z,8.82
2022-10-10T00:33:39.471Z,8.75
2022-10-10T00:36:07.112Z,8.71
2022-10-10T00:38:33.828Z,8.63
2022-10-10T00:41:00.814Z,8.51
2022-10-10T00:43:28.114Z,8.58
2022-10-10T00:45:55.287Z,8.54
2022-10-10T00:48:30.103Z,8.55
2022-10-10T00:51:02.940Z,8.43
2022-10-10T00:53:36.899Z,8.41
2022-10-10T00:56:04.285Z,8.49
2022-10-10T00:58:32.334Z,8.27
2022-10-10T01:00:59.151Z,8.09
2022-10-10T01:03:25.971Z,8.15
2022-10-10T01:05:52.731Z,8.24
2022-10-10T01:08:21.202Z,8.38
2022-10-10T01:10:56.727Z,8.28
2022-10-10T01:13:55.610Z,8.24
2022-10-10T01:16:28.264Z,8.05
2022-10-10T01:19:21.087Z,8.11
2022-10-10T01:22:06.359Z,8.21
2022-10-10T01:24:55.413Z,7.94
2022-10-10T01:27:55.737Z,7.83
2022-10-10T01:30:24.390Z,7.73
2022-10-10T01:32:59.047Z,7.46
2022-10-10T01:35:43.888Z,7.36
2022-10-10T01:38:44.705Z,7.22
2022-10-10T01:41:16.784Z,7.61
2022-10-10T01:43:43.490Z,7.30
2022-10-10T01:46:12.754Z,6.94
2022-10-10T01:48:41.090Z,6.68
2022-10-10T01:51:29.022Z,6.90
2022-10-10T01:54:34.177Z,7.15
2022-10-10T01:57:20.761Z,7.19
2022-10-10T02:00:04.572Z,6.93
2022-10-10T02:02:46.276Z,6.89
2022-10-10T02:05:31.599Z,6.98
2022-10-10T02:08:10.337Z,7.21
2022-10-10T02:11:10.614Z,7.08
2022-10-10T02:14:02.546Z,7.16
2022-10-10T02:16:37.481Z,7.15
2022-10-10T02:19:08.710Z,7.01
2022-10-10T02:21:35.416Z,7.28
2022-10-10T02:24:05.988Z,7.36
2022-10-10T02:26:33.768Z,7.46
2022-10-10T02:29:07.583Z,7.09
2022-10-10T02:32:18.172Z,7.54
2022-10-10T02:34:49.879Z,7.55
2022-10-10T02:37:17.231Z,7.37
2022-10-10T02:39:48.994Z,7.36
2022-10-10T02:42:17.934Z,7.42
2022-10-10T02:44:46.444Z,7.58
2022-10-10T02:47:13.694Z,7.52
2022-10-10T02:49:40.927Z,7.51
2022-10-10T02:52:07.855Z,7.48
2022-10-10T02:54:34.627Z,7.31
2022-10-10T02:57:01.260Z,7.20
2022-10-10T02:59:27.946Z,7.06
2022-10-10T03:01:54.617Z,7.35
2022-10-10T03:04:21.265Z,7.30
2022-10-10T03:06:47.872Z,7.39
2022-10-10T03:09:14.707Z,7.42
2022-10-10T03:11:41.578Z,7.44
2022-10-10T03:14:08.246Z,7.40
2022-10-10T03:16:34.999Z,7.13
2022-10-10T03:19:03.250Z,7.51
2022-10-10T03:21:30.175Z,7.51
2022-10-10T03:23:57.590Z,7.43
2022-10-10T03:26:24.225Z,7.56
2022-10-10T03:28:51.138Z,7.56
2022-10-10T03:31:17.906Z,7.53
2022-10-10T03:33:44.586Z,7.51
2022-10-10T03:36:11.194Z,7.43
2022-10-10T03:38:40.042Z,7.36
2022-10-10T03:41:06.845Z,6.94
2022-10-10T03:43:33.535Z,7.32
2022-10-10T03:46:00.206Z,7.25
2022-10-10T03:48:26.883Z,7.38
2022-10-10T03:50:53.505Z,7.27
2022-10-10T03:53:20.222Z,7.06
2022-10-10T03:55:46.825Z,7.37
2022-10-10T03:58:13.628Z,7.20
2022-10-10T04:00:40.604Z,7.32
2022-10-10T04:03:08.154Z,7.32
2022-10-10T04:05:39.453Z,7.54
2022-10-10T04:08:06.758Z,7.26
2022-10-10T04:10:33.489Z,7.14
2022-10-10T04:13:00.443Z,7.14
2022-10-10T04:15:27.368Z,7.21
2022-10-10T04:17:54.028Z,7.07
2022-10-10T04:20:20.710Z,6.86
2022-10-10T04:22:47.558Z,7.09
2022-10-10T04:25:14.312Z,7.16
2022-10-10T04:27:41.097Z,7.12
2022-10-10T04:30:08.278Z,7.02
2022-10-10T04:32:34.981Z,6.81
2022-10-10T04:35:01.859Z,6.65
2022-10-10T04:37:28.599Z,6.88
2022-10-10T04:39:55.361Z,6.86
2022-10-10T04:42:22.122Z,6.93
2022-10-10T04:44:49.046Z,7.04
2022-10-10T04:47:15.678Z,7.07
2022-10-10T04:49:42.430Z,6.83
2022-10-10T04:52:10.701Z,6.95
2022-10-10T04:54:37.655Z,6.95
2022-10-10T04:57:04.544Z,7.12
2022-10-10T04:59:31.266Z,7.12
2022-10-10T05:02:01.511Z,7.09
2022-10-10T05:04:28.763Z,7.12
2022-10-10T05:06:55.482Z,7.18
2022-10-10T05:09:22.176Z,7.17
2022-10-10T05:11:48.933Z,7.04
2022-10-10T05:14:15.581Z,7.00
2022-10-10T05:16:42.586Z,7.06
2022-10-10T05:19:09.238Z,6.96
2022-10-10T05:21:35.871Z,6.80
2022-10-10T05:24:03.322Z,7.09
2022-10-10T05:26:30.171Z,6.98
2022-10-10T05:28:56.825Z,7.02
2022-10-10T05:31:23.450Z,6.95
2022-10-10T05:33:50.161Z,6.74
2022-10-10T05:36:16.984Z,6.87
2022-10-10T05:38:43.706Z,6.88
2022-10-10T05:41:10.334Z,6.74
2022-10-10T05:43:37.231Z,6.89
2022-10-10T05:46:04.079Z,6.37
2022-10-10T05:48:31.111Z,6.68
2022-10-10T05:50:59.795Z,6.56
2022-10-10T05:53:27.754Z,6.71
2022-10-10T05:55:54.446Z,6.40
2022-10-10T05:58:21.115Z,6.33
2022-10-10T06:00:57.672Z,6.35
2022-10-10T06:03:24.573Z,6.22
2022-10-10T06:05:52.150Z,6.03
2022-10-10T06:08:19.122Z,6.40
2022-10-10T06:10:46.661Z,6.39
2022-10-10T06:13:16.755Z,6.43
2022-10-10T06:15:50.339Z,6.42
2022-10-10T06:18:17.063Z,6.00
2022-10-10T06:20:43.826Z,6.17
2022-10-10T06:23:10.501Z,6.52
2022-10-10T06:25:41.712Z,6.19
2022-10-10T06:28:14.495Z,6.16
2022-10-10T06:30:43.013Z,6.20
2022-10-10T06:33:10.377Z,6.16
2022-10-10T06:35:44.514Z,6.22
2022-10-10T06:38:12.346Z,6.27
2022-10-10T06:40:39.532Z,6.17
2022-10-10T06:43:12.254Z,6.37
2022-10-10T06:45:40.940Z,6.31
2022-10-10T06:48:08.451Z,6.32
2022-10-10T06:50:35.990Z,6.12
2022-10-10T06:53:02.702Z,6.15
2022-10-10T06:55:30.021Z,6.34
2022-10-10T06:57:57.577Z,6.38
2022-10-10T07:00:24.812Z,6.14
2022-10-10T07:02:52.760Z,6.06
2022-10-10T07:05:19.736Z,6.39
2022-10-10T07:07:46.469Z,6.30
2022-10-10T07:10:15.544Z,6.46
2022-10-10T07:12:44.690Z,6.51
2022-10-10T07:15:12.232Z,6.56
2022-10-10T07:17:39.320Z,6.96
2022-10-10T07:20:06.706Z,6.71
2022-10-10T07:22:33.986Z,7.98
2022-10-10T07:25:00.693Z,8.52
2022-10-10T07:27:27.665Z,8.45
2022-10-10T07:29:54.427Z,8.25
2022-10-10T07:32:21.195Z,8.38
2022-10-10T07:34:47.821Z,8.77
2022-10-10T07:37:14.498Z,9.17
2022-10-10T07:39:41.140Z,9.46
2022-10-10T07:42:07.805Z,9.56
2022-10-10T07:44:34.929Z,9.72
2022-10-10T07:47:01.937Z,9.76
2022-10-10T07:49:28.810Z,10.05
2022-10-10T07:52:00.507Z,10.11
2022-10-10T07:54:29.244Z,10.55
2022-10-10T07:56:56.151Z,10.68
2022-10-10T07:59:23.920Z,11.00
2022-10-10T08:01:51.462Z,11.05
2022-10-10T08:04:18.887Z,11.43
2022-10-10T08:06:45.650Z,11.28
2022-10-10T08:09:12.424Z,11.28
2022-10-10T08:11:39.145Z,11.14
2022-10-10T08:14:05.985Z,11.36
2022-10-10T08:16:32.906Z,11.79
2022-10-10T08:18:59.699Z,11.95
2022-10-10T08:21:26.479Z,11.88
2022-10-10T08:23:53.148Z,11.92
2022-10-10T08:26:22.674Z,11.45
2022-10-10T08:28:49.547Z,11.80
2022-10-10T08:31:19.384Z,12.14
2022-10-10T08:33:47.921Z,12.26
2022-10-10T08:36:22.185Z,12.38
2022-10-10T08:38:49.885Z,12.45
2022-10-10T08:41:39.527Z,12.65
2022-10-10T08:44:27.973Z,12.20
2022-10-10T08:47:09.224Z,12.28
2022-10-10T08:49:41.198Z,12.75
2022-10-10T08:52:12.126Z,12.42
2022-10-10T08:54:41.305Z,11.99
2022-10-10T08:57:27.832Z,11.91
2022-10-10T09:00:02.392Z,12.24
2022-10-10T09:02:50.237Z,12.45
2022-10-10T09:05:26.570Z,12.63
2022-10-10T09:08:27.003Z,12.19
2022-10-10T09:11:23.171Z,12.22
2022-10-10T09:14:26.547Z,12.19
2022-10-10T09:17:14.433Z,12.26
2022-10-10T09:20:05.769Z,12.14
2022-10-10T09:22:40.249Z,12.06
2022-10-10T09:25:16.607Z,12.00
2022-10-10T09:28:21.522Z,12.23
2022-10-10T09:30:56.990Z,12.41
2022-10-10T09:33:28.040Z,12.32
2022-10-10T09:35:59.285Z,12.26
2022-10-10T09:38:33.435Z,12.56
2022-10-10T09:41:06.196Z,12.60
2022-10-10T09:43:34.594Z,12.41
2022-10-10T09:46:02.019Z,12.49
2022-10-10T09:48:38.519Z,11.95
2022-10-10T09:51:08.928Z,12.17
2022-10-10T09:53:35.711Z,12.05
2022-10-10T09:56:05.853Z,12.20
2022-10-10T09:58:42.798Z,12.37
2022-10-10T10:01:18.615Z,12.51
2022-10-10T10:04:33.450Z,12.25
2022-10-10T10:07:22.312Z,12.51
2022-10-10T10:09:55.499Z,12.73
2022-10-10T10:12:25.378Z,12.44
2022-10-10T10:14:58.773Z,13.01
2022-10-10T10:17:25.548Z,13.13
2022-10-10T10:19:52.886Z,12.58
2022-10-10T10:22:26.602Z,12.95
2022-10-10T10:24:54.036Z,13.29
2022-10-10T10:27:23.783Z,14.34
2022-10-10T10:29:53.142Z,14.11
2022-10-10T10:32:58.746Z,14.28
2022-10-10T10:35:35.569Z,13.75
2022-10-10T10:38:18.709Z,13.18
2022-10-10T10:41:23.954Z,13.19
2022-10-10T10:44:14.254Z,13.12
2022-10-10T10:46:47.800Z,13.30
2022-10-10T10:49:36.106Z,13.36
2022-10-10T10:52:25.779Z,13.30
2022-10-10T10:55:10.708Z,13.51
2022-10-10T10:58:54.989Z,12.93
2022-10-10T11:01:28.714Z,13.33
2022-10-10T11:05:22.032Z,13.81
2022-10-10T11:07:17.327Z,13.36
2022-10-10T11:10:16.827Z,13.98
2022-10-10T11:12:54.354Z,13.74
2022-10-10T11:15:37.556Z,13.58
2022-10-10T11:18:25.772Z,13.80
2022-10-10T11:21:00.970Z,13.84
2022-10-10T11:23:33.858Z,13.64
2022-10-10T11:26:13.904Z,13.55
2022-10-10T11:29:09.687Z,13.42
2022-10-10T11:31:37.669Z,13.83
2022-10-10T11:34:17.569Z,13.76
2022-10-10T11:36:47.098Z,13.33
2022-10-10T11:39:23.075Z,12.70
2022-10-10T11:42:01.652Z,12.67
2022-10-10T11:44:34.380Z,12.47
2022-10-10T11:47:04.049Z,13.16
2022-10-10T11:49:36.645Z,13.36
2022-10-10T11:52:34.133Z,13.47
2022-10-10T11:55:13.459Z,13.52
2022-10-10T11:58:05.295Z,13.49
2022-10-10T12:00:43.922Z,13.57
2022-10-10T12:03:11.046Z,13.72
2022-10-10T12:05:42.163Z,13.73
2022-10-10T12:08:22.316Z,13.09
2022-10-10T12:10:51.301Z,13.71
2022-10-10T12:13:32.181Z,13.21
2022-10-10T12:16:05.720Z,13.44
2022-10-10T12:18:39.692Z,13.64
2022-10-10T12:21:13.747Z,13.88
2022-10-10T12:23:43.006Z,13.65
2022-10-10T12:26:22.365Z,13.55
2022-10-10T12:29:04.753Z,13.44
2022-10-10T12:31:36.974Z,13.84
2022-10-10T12:34:43.744Z,13.81
2022-10-10T12:37:34.181Z,13.45
2022-10-10T12:40:06.808Z,13.39
2022-10-10T12:43:00.646Z,13.96
2022-10-10T12:45:33.195Z,14.14
2022-10-10T12:48:20.199Z,14.10
2022-10-10T12:51:01.286Z,13.70
2022-10-10T12:53:31.682Z,13.51
2022-10-10T12:56:01.677Z,13.75
2022-10-10T12:58:33.487Z,14.05
2022-10-10T13:01:04.243Z,13.77
2022-10-10T13:03:45.393Z,14.00
2022-10-10T13:06:39.404Z,14.29
2022-10-10T13:09:16.768Z,14.20
2022-10-10T13:11:55.464Z,14.31
2022-10-10T13:14:23.133Z,14.64
2022-10-10T13:16:49.784Z,14.32
2022-10-10T13:19:19.754Z,14.50
2022-10-10T13:21:47.356Z,14.54
2022-10-10T13:24:17.869Z,14.00
2022-10-10T13:26:50.589Z,13.86
2022-10-10T13:29:23.159Z,14.00
2022-10-10T13:31:53.015Z,13.69
2022-10-10T13:34:27.243Z,14.07
2022-10-10T13:36:57.875Z,14.29
2022-10-10T13:39:25.655Z,13.93
2022-10-10T13:41:54.023Z,14.43
2022-10-10T13:44:47.736Z,14.35
2022-10-10T13:47:33.135Z,14.46
2022-10-10T13:50:00.023Z,14.23
2022-10-10T13:52:26.813Z,14.10
2022-10-10T13:54:53.626Z,13.64
2022-10-10T13:57:24.380Z,13.57
2022-10-10T14:00:01.797Z,13.78
2022-10-10T14:02:32.603Z,13.67
2022-10-10T14:05:05.457Z,14.00
2022-10-10T14:07:32.216Z,14.38
2022-10-10T14:10:09.752Z,13.68
2022-10-10T14:12:50.933Z,13.90
2022-10-10T14:15:37.324Z,13.86
2022-10-10T14:18:13.590Z,13.84
2022-10-10T14:20:40.253Z,13.63
2022-10-10T14:23:06.999Z,13.64
2022-10-10T14:25:33.857Z,13.52
2022-10-10T14:28:00.573Z,13.69
2022-10-10T14:30:27.306Z,13.61
2022-10-10T14:32:53.983Z,13.66
2022-10-10T14:35:20.687Z,13.64
2022-10-10T14:37:47.363Z,13.95
2022-10-10T14:40:23.048Z,14.10
2022-10-10T14:42:49.749Z,14.09
2022-10-10T14:45:17.666Z,14.18
2022-10-10T14:47:44.373Z,13.49
2022-10-10T14:50:16.678Z,13.69
2022-10-10T14:52:43.568Z,13.68
2022-10-10T14:55:11.725Z,14.00
2022-10-10T14:57:38.903Z,13.74
2022-10-10T15:00:08.145Z,13.95
2022-10-10T15:02:34.981Z,13.76
2022-10-10T15:05:01.836Z,13.35
2022-10-10T15:07:29.056Z,13.65
2022-10-10T15:10:32.262Z,13.54
2022-10-10T15:12:44.510Z,13.35
2022-10-10T15:15:13.834Z,13.54
2022-10-10T15:17:41.898Z,13.68
2022-10-10T15:20:10.855Z,13.75
2022-10-10T15:22:37.778Z,13.64
2022-10-10T15:25:06.095Z,13.68
2022-10-10T15:27:33.577Z,13.76
2022-10-10T15:30:00.918Z,13.11
2022-10-10T15:32:27.673Z,13.25
2022-10-10T15:34:54.630Z,13.41
2022-10-10T15:37:25.797Z,13.65
2022-10-10T15:39:52.702Z,13.79
2022-10-10T15:42:22.943Z,13.62
2022-10-10T15:44:50.799Z,13.24
2022-10-10T15:47:20.826Z,13.42
2022-10-10T15:49:47.973Z,13.49
2022-10-10T15:52:14.979Z,13.34
2022-10-10T15:54:41.869Z,13.45
2022-10-10T15:57:08.646Z,13.74
2022-10-10T15:59:37.919Z,13.66
2022-10-10T16:02:07.376Z,13.67
2022-10-10T16:04:34.114Z,13.42
2022-10-10T16:09:47.395Z,13.14
2022-10-10T16:12:14.060Z,12.79
2022-10-10T16:14:40.721Z,13.23
2022-10-10T16:17:07.384Z,12.79
2022-10-10T16:19:34.083Z,12.89
2022-10-10T16:22:00.784Z,12.80
2022-10-10T16:24:27.471Z,13.14
2022-10-10T16:26:54.253Z,12.82
2022-10-10T16:29:20.985Z,12.73
2022-10-10T16:31:47.700Z,12.77
2022-10-10T16:34:16.191Z,12.78
2022-10-10T16:36:43.252Z,12.88
2022-10-10T16:39:10.391Z,12.85
2022-10-10T16:41:52.462Z,12.48
2022-10-10T16:44:19.302Z,12.71
2022-10-10T16:46:46.108Z,12.45
2022-10-10T16:49:16.774Z,12.18
2022-10-10T16:51:43.564Z,12.47
2022-10-10T16:54:10.319Z,12.62
2022-10-10T16:56:37.011Z,12.27
2022-10-10T16:59:04.274Z,12.25
2022-10-10T17:01:31.021Z,12.09
2022-10-10T17:04:01.793Z,11.98
2022-10-10T17:06:34.908Z,12.35
2022-10-10T17:09:02.781Z,12.08
2022-10-10T17:11:29.619Z,12.15
2022-10-10T17:13:56.534Z,11.62
2022-10-10T17:17:07.090Z,12.05
2022-10-10T17:19:14.009Z,11.38
2022-10-10T17:21:40.786Z,11.36
2022-10-10T17:24:10.739Z,11.57
2022-10-10T17:26:40.585Z,11.62
2022-10-10T17:29:09.741Z,11.44
2022-10-10T17:31:36.433Z,11.08
2022-10-10T17:34:03.199Z,11.27
2022-10-10T17:36:31.925Z,11.24
2022-10-10T17:39:01.439Z,11.07
2022-10-10T17:41:29.137Z,11.47
2022-10-10T17:43:55.825Z,11.15
2022-10-10T17:46:36.423Z,11.04
2022-10-10T17:49:08.604Z,11.23
2022-10-10T17:51:37.230Z,10.47
2022-10-10T17:54:05.986Z,10.88
2022-10-10T17:56:33.120Z,11.23
2022-10-10T17:59:01.748Z,10.86
2022-10-10T18:01:30.942Z,11.10
2022-10-10T18:03:58.270Z,10.69
2022-10-10T18:06:25.268Z,11.09
2022-10-10T18:08:54.217Z,10.99
2022-10-10T18:11:23.952Z,10.64
2022-10-10T18:13:51.389Z,10.86
2022-10-10T18:16:21.142Z,10.91
2022-10-10T18:18:51.398Z,10.93
2022-10-10T18:21:20.610Z,10.95
2022-10-10T18:23:47.847Z,10.89
2022-10-10T18:26:17.548Z,10.77
2022-10-10T18:28:44.433Z,10.59
2022-10-10T18:31:15.352Z,10.57
2022-10-10T18:33:44.239Z,10.43
2022-10-10T18:36:13.381Z,10.58
2022-10-10T18:38:40.118Z,10.70
2022-10-10T18:41:16.022Z,10.54
2022-10-10T18:43:43.555Z,10.44
2022-10-10T18:46:13.478Z,10.45
2022-10-10T18:48:40.496Z,10.67
2022-10-10T18:51:17.089Z,10.36
2022-10-10T18:53:45.060Z,10.39
2022-10-10T18:56:14.041Z,10.53
2022-10-10T18:58:41.238Z,10.23
2022-10-10T19:01:11.044Z,10.55
2022-10-10T19:03:39.132Z,10.50
2022-10-10T19:06:07.745Z,10.24
2022-10-10T19:08:35.163Z,10.40
2022-10-10T19:11:02.829Z,10.31
2022-10-10T19:13:30.772Z,10.25
2022-10-10T19:16:03.683Z,10.25
2022-10-10T19:18:30.326Z,10.32
2022-10-10T19:21:02.402Z,10.60
2022-10-10T19:23:29.812Z,10.63
2022-10-10T19:25:56.574Z,10.54
2022-10-10T19:28:23.368Z,10.23
2022-10-10T19:30:50.085Z,10.44
2022-10-10T19:33:16.770Z,10.40
2022-10-10T19:35:51.411Z,10.10
2022-10-10T19:38:19.412Z,10.41
2022-10-10T19:40:47.912Z,10.13
2022-10-10T19:43:18.687Z,10.33
2022-10-10T19:45:47.603Z,10.39
2022-10-10T19:48:21.554Z,10.44
2022-10-10T19:50:48.414Z,10.11
2022-10-10T19:53:17.743Z,10.05
2022-10-10T19:56:05.167Z,10.35
2022-10-10T19:58:32.350Z,10.05
2022-10-10T20:00:59.021Z,9.86
2022-10-10T20:03:26.290Z,10.24
2022-10-10T20:05:52.963Z,9.86
2022-10-10T20:08:20.362Z,10.26
2022-10-10T20:10:47.058Z,9.88
2022-10-10T20:13:16.192Z,10.01
2022-10-10T20:15:44.413Z,10.10
2022-10-10T20:18:11.851Z,10.00
2022-10-10T20:20:43.287Z,10.03
2022-10-10T20:23:11.098Z,9.92
2022-10-10T20:25:42.719Z,9.76
2022-10-10T20:28:10.852Z,9.94
2022-10-10T20:30:44.011Z,9.95
2022-10-10T20:33:11.436Z,10.08
2022-10-10T20:35:38.296Z,10.08
2022-10-10T20:38:05.287Z,9.74
2022-10-10T20:40:32.250Z,9.70
2022-10-10T20:42:58.913Z,9.62
2022-10-10T20:45:25.529Z,9.37
2022-10-10T20:47:52.186Z,9.33
2022-10-10T20:50:19.198Z,9.45
2022-10-10T20:52:45.830Z,9.20
2022-10-10T20:55:12.860Z,9.58
2022-10-10T20:57:39.555Z,9.54
2022-10-10T21:00:06.962Z,9.58
2022-10-10T21:02:34.475Z,9.53
2022-10-10T21:05:01.475Z,9.57
2022-10-10T21:07:29.278Z,9.51
2022-10-10T21:09:55.990Z,9.73
2022-10-10T21:12:22.605Z,9.65
2022-10-10T21:14:49.236Z,9.62
2022-10-10T21:17:16.019Z,9.52
2022-10-10T21:19:42.662Z,9.69
2022-10-10T21:22:09.834Z,9.82
2022-10-10T21:24:36.948Z,9.65
2022-10-10T21:27:04.218Z,9.61
2022-10-10T21:29:30.889Z,9.62
2022-10-10T21:31:57.586Z,9.81
2022-10-10T21:34:24.197Z,9.90
2022-10-10T21:36:50.836Z,9.85
2022-10-10T21:39:17.467Z,9.89
2022-10-10T21:41:44.226Z,9.77
2022-10-10T21:44:11.022Z,9.98
2022-10-10T21:46:37.891Z,9.89
2022-10-10T21:49:11.001Z,9.79
2022-10-10T21:51:41.671Z,9.81
2022-10-10T21:54:08.834Z,9.76
2022-10-10T21:56:36.554Z,9.91
2022-10-10T21:59:03.515Z,9.86
2022-10-10T22:01:33.388Z,9.73
2022-10-10T22:04:01.860Z,9.74
2022-10-10T22:06:28.611Z,9.78
2022-10-10T22:08:57.609Z,9.82
2022-10-10T22:11:27.253Z,9.92
2022-10-10T22:13:54.465Z,9.93
2022-10-10T22:16:21.646Z,9.95
2022-10-10T22:18:48.335Z,9.68
2022-10-10T22:21:16.775Z,9.69
2022-10-10T22:23:44.963Z,9.97
2022-10-10T22:26:14.394Z,9.81
2022-10-10T22:28:41.441Z,9.74
2022-10-10T22:31:10.032Z,9.78
2022-10-10T22:33:37.219Z,9.74
2022-10-10T22:36:05.153Z,9.73
2022-10-10T22:38:32.447Z,9.62
2022-10-10T22:40:59.476Z,9.69
2022-10-10T22:43:27.279Z,9.65
2022-10-10T22:45:54.710Z,9.65
2022-10-10T22:48:21.369Z,9.43
2022-10-10T22:50:48.267Z,9.32
2022-10-10T22:53:15.039Z,9.57
2022-10-10T22:55:41.774Z,9.40
2022-10-10T22:58:09.248Z,9.22
2022-10-10T23:00:36.028Z,9.13
2022-10-10T23:03:02.714Z,9.34
2022-10-10T23:05:29.323Z,9.42
2022-10-10T23:07:55.996Z,9.34
2022-10-10T23:10:22.938Z,9.29
2022-10-10T23:12:49.582Z,9.30
2022-10-10T23:15:16.259Z,8.96
2022-10-10T23:17:42.930Z,8.89
2022-10-10T23:20:10.056Z,8.86
2022-10-10T23:22:36.753Z,9.01
2022-10-10T23:25:04.016Z,8.90
2022-10-10T23:27:30.728Z,8.86
2022-10-10T23:29:57.346Z,9.08
2022-10-10T23:32:26.834Z,9.01
2022-10-10T23:34:53.564Z,9.03
2022-10-10T23:37:20.172Z,9.00
2022-10-10T23:39:46.867Z,8.95
2022-10-10T23:42:13.721Z,8.89
2022-10-10T23:44:40.462Z,8.87
2022-10-10T23:47:07.102Z,8.82
2022-10-10T23:49:33.818Z,8.95
2022-10-10T23:52:00.504Z,8.50
2022-10-10T23:54:27.254Z,8.68
2022-10-10T23:56:54.055Z,8.66
2022-10-10T23:59:20.715Z,8.43
